sensor_id;sensor_type;location;lat;lon;timestamp;P1;durP1;ratioP1;P2;durP2;ratioP2
48613;SDS011;34408;51.426;5.444;2022-12-11T00:01:51;39.88;;;19.83;;
48613;SDS011;34408;51.426;5.444;2022-12-11T00:04:18;39.80;;;17.48;;
48613;SDS011;34408;51.426;5.444;2022-12-11T00:06:48;38.88;;;19.05;;
48613;SDS011;34408;51.426;5.444;2022-12-11T00:09:16;37.83;;;17.63;;
48613;SDS011;34408;51.426;5.444;2022-12-11T00:11:44;40.97;;;17.95;;
48613;SDS011;34408;51.426;5.444;2022-12-11T00:14:12;36.33;;;16.98;;
48613;SDS011;34408;51.426;5.444;2022-12-11T00:16:40;36.78;;;17.15;;
48613;SDS011;34408;51.426;5.444;2022-12-11T00:19:08;42.42;;;19.13;;
48613;SDS011;34408;51.426;5.444;2022-12-11T00:21:36;38.63;;;17.25;;
48613;SDS011;34408;51.426;5.444;2022-12-11T00:24:06;39.13;;;17.40;;
48613;SDS011;34408;51.426;5.444;2022-12-11T00:26:34;38.17;;;19.05;;
48613;SDS011;34408;51.426;5.444;2022-12-11T00:29:01;35.13;;;17.95;;
48613;SDS011;34408;51.426;5.444;2022-12-11T00:31:30;37.47;;;16.23;;
48613;SDS011;34408;51.426;5.444;2022-12-11T00:33:59;36.17;;;17.67;;
48613;SDS011;34408;51.426;5.444;2022-12-11T00:36:27;33.13;;;16.25;;
48613;SDS011;34408;51.426;5.444;2022-12-11T00:38:55;38.05;;;17.77;;
48613;SDS011;34408;51.426;5.444;2022-12-11T00:41:24;33.70;;;17.10;;
48613;SDS011;34408;51.426;5.444;2022-12-11T00:43:52;32.40;;;16.30;;
48613;SDS011;34408;51.426;5.444;2022-12-11T00:46:19;32.97;;;16.83;;
48613;SDS011;34408;51.426;5.444;2022-12-11T00:48:47;36.72;;;16.83;;
48613;SDS011;34408;51.426;5.444;2022-12-11T00:51:16;34.70;;;17.23;;
48613;SDS011;34408;51.426;5.444;2022-12-11T00:53:44;33.58;;;16.67;;
48613;SDS011;34408;51.426;5.444;2022-12-11T00:56:13;31.63;;;15.80;;
48613;SDS011;34408;51.426;5.444;2022-12-11T00:58:43;35.22;;;17.58;;
48613;SDS011;34408;51.426;5.444;2022-12-11T01:01:16;35.60;;;16.83;;
48613;SDS011;34408;51.426;5.444;2022-12-11T01:03:46;36.40;;;15.73;;
48613;SDS011;34408;51.426;5.444;2022-12-11T01:06:15;28.63;;;15.38;;
48613;SDS011;34408;51.426;5.444;2022-12-11T01:08:44;34.33;;;16.70;;
48613;SDS011;34408;51.426;5.444;2022-12-11T01:11:13;36.00;;;16.67;;
48613;SDS011;34408;51.426;5.444;2022-12-11T01:13:41;32.28;;;16.17;;
48613;SDS011;34408;51.426;5.444;2022-12-11T01:16:11;37.45;;;17.90;;
48613;SDS011;34408;51.426;5.444;2022-12-11T01:18:40;30.95;;;17.25;;
48613;SDS011;34408;51.426;5.444;2022-12-11T01:21:09;34.40;;;17.95;;
48613;SDS011;34408;51.426;5.444;2022-12-11T01:23:39;32.83;;;16.15;;
48613;SDS011;34408;51.426;5.444;2022-12-11T01:26:07;31.23;;;15.65;;
48613;SDS011;34408;51.426;5.444;2022-12-11T01:28:35;32.95;;;16.60;;
48613;SDS011;34408;51.426;5.444;2022-12-11T01:31:06;30.90;;;15.70;;
48613;SDS011;34408;51.426;5.444;2022-12-11T01:33:36;33.17;;;16.15;;
48613;SDS011;34408;51.426;5.444;2022-12-11T01:36:08;35.05;;;16.48;;
48613;SDS011;34408;51.426;5.444;2022-12-11T01:38:36;35.38;;;16.33;;
48613;SDS011;34408;51.426;5.444;2022-12-11T01:41:04;30.30;;;15.93;;
48613;SDS011;34408;51.426;5.444;2022-12-11T01:46:25;30.58;;;15.82;;
48613;SDS011;34408;51.426;5.444;2022-12-11T01:48:56;31.13;;;16.58;;
48613;SDS011;34408;51.426;5.444;2022-12-11T01:51:25;33.28;;;16.73;;
48613;SDS011;34408;51.426;5.444;2022-12-11T01:53:56;32.67;;;15.82;;
48613;SDS011;34408;51.426;5.444;2022-12-11T01:56:27;35.80;;;17.33;;
48613;SDS011;34408;51.426;5.444;2022-12-11T01:58:59;30.98;;;15.98;;
48613;SDS011;34408;51.426;5.444;2022-12-11T02:01:33;32.03;;;16.17;;
48613;SDS011;34408;51.426;5.444;2022-12-11T02:04:04;32.58;;;16.38;;
48613;SDS011;34408;51.426;5.444;2022-12-11T02:06:35;29.33;;;14.93;;
48613;SDS011;34408;51.426;5.444;2022-12-11T02:09:05;33.25;;;16.13;;
48613;SDS011;34408;51.426;5.444;2022-12-11T02:11:39;25.88;;;14.85;;
48613;SDS011;34408;51.426;5.444;2022-12-11T02:14:19;31.75;;;15.50;;
48613;SDS011;34408;51.426;5.444;2022-12-11T02:16:55;30.10;;;14.57;;
48613;SDS011;34408;51.426;5.444;2022-12-11T02:19:36;28.67;;;15.65;;
48613;SDS011;34408;51.426;5.444;2022-12-11T02:22:19;30.15;;;15.02;;
48613;SDS011;34408;51.426;5.444;2022-12-11T02:24:57;27.38;;;13.85;;
48613;SDS011;34408;51.426;5.444;2022-12-11T02:27:36;29.08;;;15.02;;
48613;SDS011;34408;51.426;5.444;2022-12-11T02:30:12;28.02;;;14.20;;
48613;SDS011;34408;51.426;5.444;2022-12-11T02:32:43;27.90;;;14.63;;
48613;SDS011;34408;51.426;5.444;2022-12-11T02:35:14;28.92;;;14.98;;
48613;SDS011;34408;51.426;5.444;2022-12-11T02:37:46;27.15;;;13.75;;
48613;SDS011;34408;51.426;5.444;2022-12-11T02:40:16;27.80;;;14.63;;
48613;SDS011;34408;51.426;5.444;2022-12-11T02:42:49;26.52;;;13.50;;
48613;SDS011;34408;51.426;5.444;2022-12-11T02:45:19;28.58;;;14.05;;
48613;SDS011;34408;51.426;5.444;2022-12-11T02:47:50;26.77;;;14.32;;
48613;SDS011;34408;51.426;5.444;2022-12-11T02:50:19;31.70;;;15.95;;
48613;SDS011;34408;51.426;5.444;2022-12-11T02:52:49;26.55;;;14.35;;
48613;SDS011;34408;51.426;5.444;2022-12-11T02:55:21;26.85;;;14.02;;
48613;SDS011;34408;51.426;5.444;2022-12-11T02:57:54;24.95;;;13.55;;
48613;SDS011;34408;51.426;5.444;2022-12-11T03:00:30;28.25;;;14.00;;
48613;SDS011;34408;51.426;5.444;2022-12-11T03:02:58;25.05;;;14.25;;
48613;SDS011;34408;51.426;5.444;2022-12-11T03:05:26;26.60;;;14.73;;
48613;SDS011;34408;51.426;5.444;2022-12-11T03:07:54;26.17;;;14.20;;
48613;SDS011;34408;51.426;5.444;2022-12-11T03:10:22;27.02;;;13.82;;
48613;SDS011;34408;51.426;5.444;2022-12-11T03:12:51;25.08;;;13.57;;
48613;SDS011;34408;51.426;5.444;2022-12-11T03:15:22;22.73;;;12.63;;
48613;SDS011;34408;51.426;5.444;2022-12-11T03:17:58;23.02;;;13.57;;
48613;SDS011;34408;51.426;5.444;2022-12-11T03:20:33;23.98;;;13.52;;
48613;SDS011;34408;51.426;5.444;2022-12-11T03:23:07;27.77;;;14.30;;
48613;SDS011;34408;51.426;5.444;2022-12-11T03:25:43;26.23;;;13.90;;
48613;SDS011;34408;51.426;5.444;2022-12-11T03:28:17;27.58;;;13.35;;
48613;SDS011;34408;51.426;5.444;2022-12-11T03:30:47;23.13;;;12.55;;
48613;SDS011;34408;51.426;5.444;2022-12-11T03:33:20;24.95;;;12.90;;
48613;SDS011;34408;51.426;5.444;2022-12-11T03:35:52;22.60;;;13.48;;
48613;SDS011;34408;51.426;5.444;2022-12-11T03:38:22;19.85;;;11.40;;
48613;SDS011;34408;51.426;5.444;2022-12-11T03:40:55;22.88;;;11.50;;
48613;SDS011;34408;51.426;5.444;2022-12-11T03:43:27;21.27;;;12.23;;
48613;SDS011;34408;51.426;5.444;2022-12-11T03:45:55;24.02;;;13.27;;
48613;SDS011;34408;51.426;5.444;2022-12-11T03:48:27;22.25;;;12.90;;
48613;SDS011;34408;51.426;5.444;2022-12-11T03:50:59;20.85;;;11.80;;
48613;SDS011;34408;51.426;5.444;2022-12-11T03:53:30;21.67;;;12.77;;
48613;SDS011;34408;51.426;5.444;2022-12-11T03:55:59;24.80;;;13.30;;
48613;SDS011;34408;51.426;5.444;2022-12-11T03:58:29;20.92;;;11.43;;
48613;SDS011;34408;51.426;5.444;2022-12-11T04:00:57;25.63;;;12.73;;
48613;SDS011;34408;51.426;5.444;2022-12-11T04:03:24;22.13;;;12.77;;
48613;SDS011;34408;51.426;5.444;2022-12-11T04:05:54;21.05;;;12.38;;
48613;SDS011;34408;51.426;5.444;2022-12-11T04:08:22;20.40;;;11.70;;
48613;SDS011;34408;51.426;5.444;2022-12-11T04:10:50;22.70;;;12.80;;
48613;SDS011;34408;51.426;5.444;2022-12-11T04:13:39;18.35;;;11.68;;
48613;SDS011;34408;51.426;5.444;2022-12-11T04:16:08;18.58;;;11.07;;
48613;SDS011;34408;51.426;5.444;2022-12-11T04:18:35;18.73;;;10.20;;
48613;SDS011;34408;51.426;5.444;2022-12-11T04:21:30;17.83;;;10.43;;
48613;SDS011;34408;51.426;5.444;2022-12-11T04:24:15;19.65;;;11.85;;
48613;SDS011;34408;51.426;5.444;2022-12-11T04:26:43;16.90;;;10.57;;
48613;SDS011;34408;51.426;5.444;2022-12-11T04:29:12;15.38;;;10.18;;
48613;SDS011;34408;51.426;5.444;2022-12-11T04:31:40;16.48;;;10.07;;
48613;SDS011;34408;51.426;5.444;2022-12-11T04:34:08;16.02;;;9.77;;
48613;SDS011;34408;51.426;5.444;2022-12-11T04:36:37;16.65;;;10.55;;
48613;SDS011;34408;51.426;5.444;2022-12-11T04:39:05;16.83;;;9.63;;
48613;SDS011;34408;51.426;5.444;2022-12-11T04:41:33;17.40;;;9.73;;
48613;SDS011;34408;51.426;5.444;2022-12-11T04:44:02;16.50;;;9.68;;
48613;SDS011;34408;51.426;5.444;2022-12-11T04:46:30;16.13;;;10.45;;
48613;SDS011;34408;51.426;5.444;2022-12-11T04:48:58;18.77;;;9.70;;
48613;SDS011;34408;51.426;5.444;2022-12-11T04:51:26;13.55;;;9.25;;
48613;SDS011;34408;51.426;5.444;2022-12-11T04:53:56;15.50;;;9.45;;
48613;SDS011;34408;51.426;5.444;2022-12-11T04:56:24;15.73;;;9.20;;
48613;SDS011;34408;51.426;5.444;2022-12-11T04:58:52;14.27;;;9.13;;
48613;SDS011;34408;51.426;5.444;2022-12-11T05:01:20;15.00;;;9.25;;
48613;SDS011;34408;51.426;5.444;2022-12-11T05:03:48;13.15;;;8.60;;
48613;SDS011;34408;51.426;5.444;2022-12-11T05:06:17;15.88;;;9.63;;
48613;SDS011;34408;51.426;5.444;2022-12-11T05:08:44;17.85;;;10.05;;
48613;SDS011;34408;51.426;5.444;2022-12-11T05:11:14;15.88;;;8.48;;
48613;SDS011;34408;51.426;5.444;2022-12-11T05:13:42;17.08;;;9.40;;
48613;SDS011;34408;51.426;5.444;2022-12-11T05:16:11;14.75;;;8.45;;
48613;SDS011;34408;51.426;5.444;2022-12-11T05:18:40;14.88;;;9.48;;
48613;SDS011;34408;51.426;5.444;2022-12-11T05:21:09;16.98;;;9.50;;
48613;SDS011;34408;51.426;5.444;2022-12-11T05:23:38;17.85;;;8.70;;
48613;SDS011;34408;51.426;5.444;2022-12-11T05:26:06;13.30;;;8.50;;
48613;SDS011;34408;51.426;5.444;2022-12-11T05:28:38;14.93;;;8.32;;
48613;SDS011;34408;51.426;5.444;2022-12-11T05:31:07;15.88;;;9.57;;
48613;SDS011;34408;51.426;5.444;2022-12-11T05:33:38;13.35;;;8.32;;
48613;SDS011;34408;51.426;5.444;2022-12-11T05:36:07;14.63;;;8.73;;
48613;SDS011;34408;51.426;5.444;2022-12-11T05:38:35;15.75;;;8.55;;
48613;SDS011;34408;51.426;5.444;2022-12-11T05:41:03;14.35;;;8.52;;
48613;SDS011;34408;51.426;5.444;2022-12-11T05:43:33;12.55;;;8.15;;
48613;SDS011;34408;51.426;5.444;2022-12-11T05:46:07;14.90;;;8.38;;
48613;SDS011;34408;51.426;5.444;2022-12-11T05:48:36;15.75;;;8.35;;
48613;SDS011;34408;51.426;5.444;2022-12-11T05:51:05;14.15;;;8.30;;
48613;SDS011;34408;51.426;5.444;2022-12-11T05:53:34;15.15;;;8.75;;
48613;SDS011;34408;51.426;5.444;2022-12-11T05:56:02;13.38;;;7.93;;
48613;SDS011;34408;51.426;5.444;2022-12-11T05:58:31;14.50;;;8.65;;
48613;SDS011;34408;51.426;5.444;2022-12-11T06:00:59;15.00;;;8.45;;
48613;SDS011;34408;51.426;5.444;2022-12-11T06:03:29;13.75;;;8.38;;
48613;SDS011;34408;51.426;5.444;2022-12-11T06:05:59;14.13;;;8.38;;
48613;SDS011;34408;51.426;5.444;2022-12-11T06:08:28;10.90;;;7.22;;
48613;SDS011;34408;51.426;5.444;2022-12-11T06:10:55;12.60;;;7.97;;
48613;SDS011;34408;51.426;5.444;2022-12-11T06:13:23;12.45;;;7.70;;
48613;SDS011;34408;51.426;5.444;2022-12-11T06:15:51;14.77;;;7.80;;
48613;SDS011;34408;51.426;5.444;2022-12-11T06:18:19;11.48;;;7.45;;
48613;SDS011;34408;51.426;5.444;2022-12-11T06:20:48;11.57;;;7.28;;
48613;SDS011;34408;51.426;5.444;2022-12-11T06:23:16;13.63;;;8.02;;
48613;SDS011;34408;51.426;5.444;2022-12-11T06:25:44;14.27;;;9.05;;
48613;SDS011;34408;51.426;5.444;2022-12-11T06:28:11;12.98;;;7.60;;
48613;SDS011;34408;51.426;5.444;2022-12-11T06:30:39;11.13;;;6.78;;
48613;SDS011;34408;51.426;5.444;2022-12-11T06:33:07;11.40;;;7.32;;
48613;SDS011;34408;51.426;5.444;2022-12-11T06:35:35;11.77;;;8.07;;
48613;SDS011;34408;51.426;5.444;2022-12-11T06:38:09;12.27;;;7.90;;
48613;SDS011;34408;51.426;5.444;2022-12-11T06:40:36;13.30;;;7.57;;
48613;SDS011;34408;51.426;5.444;2022-12-11T06:43:05;11.93;;;7.80;;
48613;SDS011;34408;51.426;5.444;2022-12-11T06:45:32;12.63;;;7.43;;
48613;SDS011;34408;51.426;5.444;2022-12-11T06:48:00;13.93;;;7.60;;
48613;SDS011;34408;51.426;5.444;2022-12-11T06:50:28;12.32;;;7.47;;
48613;SDS011;34408;51.426;5.444;2022-12-11T06:52:56;10.98;;;6.68;;
48613;SDS011;34408;51.426;5.444;2022-12-11T06:55:28;14.52;;;8.70;;
48613;SDS011;34408;51.426;5.444;2022-12-11T06:57:56;12.30;;;7.60;;
48613;SDS011;34408;51.426;5.444;2022-12-11T07:00:23;11.88;;;7.55;;
48613;SDS011;34408;51.426;5.444;2022-12-11T07:02:52;12.98;;;8.27;;
48613;SDS011;34408;51.426;5.444;2022-12-11T07:05:20;14.70;;;8.55;;
48613;SDS011;34408;51.426;5.444;2022-12-11T07:07:47;12.88;;;8.48;;
48613;SDS011;34408;51.426;5.444;2022-12-11T07:10:15;15.60;;;9.38;;
48613;SDS011;34408;51.426;5.444;2022-12-11T07:12:44;14.13;;;9.00;;
48613;SDS011;34408;51.426;5.444;2022-12-11T07:15:12;13.25;;;8.13;;
48613;SDS011;34408;51.426;5.444;2022-12-11T07:17:40;15.90;;;9.27;;
48613;SDS011;34408;51.426;5.444;2022-12-11T07:20:08;13.98;;;8.48;;
48613;SDS011;34408;51.426;5.444;2022-12-11T07:22:36;15.82;;;9.68;;
48613;SDS011;34408;51.426;5.444;2022-12-11T07:25:11;12.50;;;8.88;;
48613;SDS011;34408;51.426;5.444;2022-12-11T07:27:39;16.17;;;9.90;;
48613;SDS011;34408;51.426;5.444;2022-12-11T07:30:09;14.95;;;9.05;;
48613;SDS011;34408;51.426;5.444;2022-12-11T07:32:38;15.95;;;9.02;;
48613;SDS011;34408;51.426;5.444;2022-12-11T07:35:06;15.77;;;9.73;;
48613;SDS011;34408;51.426;5.444;2022-12-11T07:37:35;16.60;;;9.23;;
48613;SDS011;34408;51.426;5.444;2022-12-11T07:40:03;15.57;;;9.23;;
48613;SDS011;34408;51.426;5.444;2022-12-11T07:42:32;15.07;;;8.93;;
48613;SDS011;34408;51.426;5.444;2022-12-11T07:44:59;15.57;;;9.10;;
48613;SDS011;34408;51.426;5.444;2022-12-11T07:47:28;16.15;;;9.07;;
48613;SDS011;34408;51.426;5.444;2022-12-11T07:49:56;15.20;;;9.57;;
48613;SDS011;34408;51.426;5.444;2022-12-11T07:52:24;15.23;;;8.40;;
48613;SDS011;34408;51.426;5.444;2022-12-11T07:54:51;15.95;;;9.15;;
48613;SDS011;34408;51.426;5.444;2022-12-11T07:57:19;15.32;;;8.55;;
48613;SDS011;34408;51.426;5.444;2022-12-11T07:59:47;16.88;;;8.50;;
48613;SDS011;34408;51.426;5.444;2022-12-11T08:02:15;17.63;;;9.38;;
48613;SDS011;34408;51.426;5.444;2022-12-11T08:04:44;13.13;;;8.63;;
48613;SDS011;34408;51.426;5.444;2022-12-11T08:07:11;15.15;;;9.13;;
48613;SDS011;34408;51.426;5.444;2022-12-11T08:09:39;17.73;;;9.05;;
48613;SDS011;34408;51.426;5.444;2022-12-11T08:12:07;16.08;;;9.30;;
48613;SDS011;34408;51.426;5.444;2022-12-11T08:14:35;14.48;;;8.25;;
48613;SDS011;34408;51.426;5.444;2022-12-11T08:17:03;15.10;;;7.97;;
48613;SDS011;34408;51.426;5.444;2022-12-11T08:19:30;14.80;;;8.25;;
48613;SDS011;34408;51.426;5.444;2022-12-11T08:21:59;14.65;;;8.07;;
48613;SDS011;34408;51.426;5.444;2022-12-11T08:24:27;17.00;;;8.13;;
48613;SDS011;34408;51.426;5.444;2022-12-11T08:26:55;15.57;;;8.02;;
48613;SDS011;34408;51.426;5.444;2022-12-11T08:29:22;14.02;;;8.32;;
48613;SDS011;34408;51.426;5.444;2022-12-11T08:31:50;14.65;;;8.52;;
48613;SDS011;34408;51.426;5.444;2022-12-11T08:34:18;14.85;;;8.52;;
48613;SDS011;34408;51.426;5.444;2022-12-11T08:36:48;13.80;;;8.27;;
48613;SDS011;34408;51.426;5.444;2022-12-11T08:39:17;13.43;;;8.85;;
48613;SDS011;34408;51.426;5.444;2022-12-11T08:41:45;14.10;;;8.30;;
48613;SDS011;34408;51.426;5.444;2022-12-11T08:44:13;13.15;;;7.97;;
48613;SDS011;34408;51.426;5.444;2022-12-11T08:46:42;16.38;;;9.10;;
48613;SDS011;34408;51.426;5.444;2022-12-11T08:49:10;13.18;;;8.18;;
48613;SDS011;34408;51.426;5.444;2022-12-11T08:51:38;15.00;;;8.77;;
48613;SDS011;34408;51.426;5.444;2022-12-11T08:54:05;13.73;;;8.40;;
48613;SDS011;34408;51.426;5.444;2022-12-11T08:56:34;16.25;;;8.77;;
48613;SDS011;34408;51.426;5.444;2022-12-11T08:59:02;12.50;;;8.07;;
48613;SDS011;34408;51.426;5.444;2022-12-11T09:01:31;14.45;;;7.68;;
48613;SDS011;34408;51.426;5.444;2022-12-11T09:03:59;14.50;;;8.52;;
48613;SDS011;34408;51.426;5.444;2022-12-11T09:06:28;14.82;;;8.52;;
48613;SDS011;34408;51.426;5.444;2022-12-11T09:08:59;14.65;;;8.20;;
48613;SDS011;34408;51.426;5.444;2022-12-11T09:11:28;31.27;;;10.55;;
48613;SDS011;34408;51.426;5.444;2022-12-11T09:13:59;15.90;;;8.50;;
48613;SDS011;34408;51.426;5.444;2022-12-11T09:16:33;16.60;;;8.48;;
48613;SDS011;34408;51.426;5.444;2022-12-11T09:19:05;16.70;;;9.00;;
48613;SDS011;34408;51.426;5.444;2022-12-11T09:21:34;14.70;;;9.35;;
48613;SDS011;34408;51.426;5.444;2022-12-11T09:24:02;17.27;;;9.60;;
48613;SDS011;34408;51.426;5.444;2022-12-11T09:26:30;18.02;;;10.35;;
48613;SDS011;34408;51.426;5.444;2022-12-11T09:29:00;15.50;;;8.85;;
48613;SDS011;34408;51.426;5.444;2022-12-11T09:31:30;14.20;;;8.27;;
48613;SDS011;34408;51.426;5.444;2022-12-11T09:34:01;15.15;;;8.73;;
48613;SDS011;34408;51.426;5.444;2022-12-11T09:36:31;16.65;;;9.48;;
48613;SDS011;34408;51.426;5.444;2022-12-11T09:38:59;14.82;;;9.27;;
48613;SDS011;34408;51.426;5.444;2022-12-11T09:41:35;18.88;;;9.27;;
48613;SDS011;34408;51.426;5.444;2022-12-11T09:44:11;17.95;;;9.63;;
48613;SDS011;34408;51.426;5.444;2022-12-11T09:46:46;16.83;;;9.25;;
48613;SDS011;34408;51.426;5.444;2022-12-11T09:49:19;15.35;;;9.32;;
48613;SDS011;34408;51.426;5.444;2022-12-11T09:51:52;15.68;;;8.18;;
48613;SDS011;34408;51.426;5.444;2022-12-11T09:54:30;14.55;;;8.85;;
48613;SDS011;34408;51.426;5.444;2022-12-11T09:57:01;15.55;;;8.85;;
48613;SDS011;34408;51.426;5.444;2022-12-11T09:59:39;15.77;;;9.32;;
48613;SDS011;34408;51.426;5.444;2022-12-11T10:02:22;18.13;;;9.27;;
48613;SDS011;34408;51.426;5.444;2022-12-11T10:05:03;18.90;;;9.50;;
48613;SDS011;34408;51.426;5.444;2022-12-11T10:07:42;17.17;;;8.57;;
48613;SDS011;34408;51.426;5.444;2022-12-11T10:10:17;16.45;;;9.27;;
48613;SDS011;34408;51.426;5.444;2022-12-11T10:12:57;16.75;;;8.52;;
48613;SDS011;34408;51.426;5.444;2022-12-11T10:15:37;15.30;;;8.23;;
48613;SDS011;34408;51.426;5.444;2022-12-11T10:18:10;17.63;;;9.93;;
48613;SDS011;34408;51.426;5.444;2022-12-11T10:20:42;18.27;;;9.60;;
48613;SDS011;34408;51.426;5.444;2022-12-11T10:23:14;20.55;;;10.00;;
48613;SDS011;34408;51.426;5.444;2022-12-11T10:25:46;16.30;;;9.30;;
48613;SDS011;34408;51.426;5.444;2022-12-11T10:28:20;15.50;;;8.77;;
48613;SDS011;34408;51.426;5.444;2022-12-11T10:30:50;15.27;;;9.18;;
48613;SDS011;34408;51.426;5.444;2022-12-11T10:33:26;18.35;;;9.50;;
48613;SDS011;34408;51.426;5.444;2022-12-11T10:36:00;14.23;;;8.65;;
48613;SDS011;34408;51.426;5.444;2022-12-11T10:38:29;20.30;;;9.30;;
48613;SDS011;34408;51.426;5.444;2022-12-11T10:41:00;17.20;;;8.80;;
48613;SDS011;34408;51.426;5.444;2022-12-11T10:43:32;18.50;;;8.52;;
48613;SDS011;34408;51.426;5.444;2022-12-11T10:46:03;12.88;;;7.68;;
48613;SDS011;34408;51.426;5.444;2022-12-11T10:48:32;13.65;;;7.90;;
48613;SDS011;34408;51.426;5.444;2022-12-11T10:51:01;14.98;;;7.78;;
48613;SDS011;34408;51.426;5.444;2022-12-11T10:53:32;16.70;;;8.38;;
48613;SDS011;34408;51.426;5.444;2022-12-11T10:56:00;15.80;;;9.13;;
48613;SDS011;34408;51.426;5.444;2022-12-11T10:58:29;18.63;;;9.55;;
48613;SDS011;34408;51.426;5.444;2022-12-11T11:01:05;15.02;;;8.60;;
48613;SDS011;34408;51.426;5.444;2022-12-11T11:03:35;14.35;;;7.93;;
48613;SDS011;34408;51.426;5.444;2022-12-11T11:06:18;12.75;;;7.97;;
48613;SDS011;34408;51.426;5.444;2022-12-11T11:08:48;16.08;;;9.02;;
48613;SDS011;34408;51.426;5.444;2022-12-11T11:11:21;17.50;;;8.13;;
48613;SDS011;34408;51.426;5.444;2022-12-11T11:14:03;14.52;;;7.78;;
48613;SDS011;34408;51.426;5.444;2022-12-11T11:16:35;15.43;;;8.55;;
48613;SDS011;34408;51.426;5.444;2022-12-11T11:19:04;14.10;;;8.38;;
48613;SDS011;34408;51.426;5.444;2022-12-11T11:21:33;14.57;;;7.50;;
48613;SDS011;34408;51.426;5.444;2022-12-11T11:24:02;15.27;;;8.63;;
48613;SDS011;34408;51.426;5.444;2022-12-11T11:26:30;13.68;;;7.85;;
48613;SDS011;34408;51.426;5.444;2022-12-11T11:29:22;14.73;;;8.00;;
48613;SDS011;34408;51.426;5.444;2022-12-11T11:31:56;13.68;;;8.10;;
48613;SDS011;34408;51.426;5.444;2022-12-11T11:34:27;12.35;;;7.13;;
48613;SDS011;34408;51.426;5.444;2022-12-11T11:36:56;15.18;;;8.50;;
48613;SDS011;34408;51.426;5.444;2022-12-11T11:39:31;13.20;;;7.45;;
48613;SDS011;34408;51.426;5.444;2022-12-11T11:42:03;13.80;;;7.68;;
48613;SDS011;34408;51.426;5.444;2022-12-11T11:44:37;12.40;;;7.00;;
48613;SDS011;34408;51.426;5.444;2022-12-11T11:47:12;14.32;;;8.18;;
48613;SDS011;34408;51.426;5.444;2022-12-11T11:49:46;16.77;;;7.55;;
48613;SDS011;34408;51.426;5.444;2022-12-11T11:52:20;14.07;;;8.15;;
48613;SDS011;34408;51.426;5.444;2022-12-11T11:54:56;14.55;;;7.40;;
48613;SDS011;34408;51.426;5.444;2022-12-11T11:57:36;15.23;;;8.45;;
48613;SDS011;34408;51.426;5.444;2022-12-11T12:00:15;19.52;;;8.45;;
48613;SDS011;34408;51.426;5.444;2022-12-11T12:02:47;18.05;;;8.70;;
48613;SDS011;34408;51.426;5.444;2022-12-11T12:05:16;15.23;;;7.97;;
48613;SDS011;34408;51.426;5.444;2022-12-11T12:07:50;12.48;;;7.65;;
48613;SDS011;34408;51.426;5.444;2022-12-11T12:10:31;17.30;;;8.27;;
48613;SDS011;34408;51.426;5.444;2022-12-11T12:13:12;12.70;;;7.03;;
48613;SDS011;34408;51.426;5.444;2022-12-11T12:16:13;14.80;;;7.68;;
48613;SDS011;34408;51.426;5.444;2022-12-11T12:19:12;17.48;;;8.45;;
48613;SDS011;34408;51.426;5.444;2022-12-11T12:21:46;14.45;;;8.10;;
48613;SDS011;34408;51.426;5.444;2022-12-11T12:24:20;13.77;;;7.90;;
48613;SDS011;34408;51.426;5.444;2022-12-11T12:26:58;17.33;;;8.13;;
48613;SDS011;34408;51.426;5.444;2022-12-11T12:29:52;14.63;;;7.60;;
48613;SDS011;34408;51.426;5.444;2022-12-11T12:32:29;9.68;;;7.00;;
48613;SDS011;34408;51.426;5.444;2022-12-11T12:35:08;12.35;;;7.15;;
48613;SDS011;34408;51.426;5.444;2022-12-11T12:37:46;11.93;;;7.43;;
48613;SDS011;34408;51.426;5.444;2022-12-11T12:40:25;14.05;;;7.32;;
48613;SDS011;34408;51.426;5.444;2022-12-11T12:43:02;13.70;;;7.80;;
48613;SDS011;34408;51.426;5.444;2022-12-11T12:48:08;13.18;;;7.05;;
48613;SDS011;34408;51.426;5.444;2022-12-11T12:50:39;11.35;;;6.68;;
48613;SDS011;34408;51.426;5.444;2022-12-11T12:53:10;11.95;;;7.18;;
48613;SDS011;34408;51.426;5.444;2022-12-11T12:55:43;13.10;;;7.18;;
48613;SDS011;34408;51.426;5.444;2022-12-11T12:58:23;13.73;;;7.18;;
48613;SDS011;34408;51.426;5.444;2022-12-11T13:00:52;13.18;;;7.65;;
48613;SDS011;34408;51.426;5.444;2022-12-11T13:03:21;13.43;;;7.28;;
48613;SDS011;34408;51.426;5.444;2022-12-11T13:05:57;11.40;;;6.90;;
48613;SDS011;34408;51.426;5.444;2022-12-11T13:08:27;12.70;;;7.32;;
48613;SDS011;34408;51.426;5.444;2022-12-11T13:10:58;13.13;;;7.07;;
48613;SDS011;34408;51.426;5.444;2022-12-11T13:13:30;13.50;;;7.00;;
48613;SDS011;34408;51.426;5.444;2022-12-11T13:18:52;14.00;;;7.03;;
48613;SDS011;34408;51.426;5.444;2022-12-11T13:21:26;14.98;;;7.50;;
48613;SDS011;34408;51.426;5.444;2022-12-11T13:24:09;13.15;;;6.82;;
48613;SDS011;34408;51.426;5.444;2022-12-11T13:26:40;12.95;;;7.57;;
48613;SDS011;34408;51.426;5.444;2022-12-11T13:31:56;12.07;;;6.68;;
48613;SDS011;34408;51.426;5.444;2022-12-11T13:34:27;14.10;;;7.18;;
48613;SDS011;34408;51.426;5.444;2022-12-11T13:37:00;10.95;;;7.18;;
48613;SDS011;34408;51.426;5.444;2022-12-11T13:39:30;12.50;;;6.55;;
48613;SDS011;34408;51.426;5.444;2022-12-11T13:42:00;13.25;;;6.70;;
48613;SDS011;34408;51.426;5.444;2022-12-11T13:44:32;11.00;;;6.68;;
48613;SDS011;34408;51.426;5.444;2022-12-11T13:47:04;10.30;;;6.30;;
48613;SDS011;34408;51.426;5.444;2022-12-11T13:49:38;14.88;;;7.28;;
48613;SDS011;34408;51.426;5.444;2022-12-11T13:52:16;10.65;;;6.72;;
48613;SDS011;34408;51.426;5.444;2022-12-11T13:54:46;11.52;;;6.47;;
48613;SDS011;34408;51.426;5.444;2022-12-11T13:57:16;11.50;;;5.90;;
48613;SDS011;34408;51.426;5.444;2022-12-11T13:59:46;11.57;;;6.93;;
48613;SDS011;34408;51.426;5.444;2022-12-11T14:02:17;10.85;;;6.07;;
48613;SDS011;34408;51.426;5.444;2022-12-11T14:04:47;11.13;;;6.22;;
48613;SDS011;34408;51.426;5.444;2022-12-11T14:07:21;11.90;;;6.25;;
48613;SDS011;34408;51.426;5.444;2022-12-11T14:09:53;9.55;;;6.25;;
48613;SDS011;34408;51.426;5.444;2022-12-11T14:12:26;10.73;;;6.80;;
48613;SDS011;34408;51.426;5.444;2022-12-11T14:14:56;12.95;;;6.38;;
48613;SDS011;34408;51.426;5.444;2022-12-11T14:17:28;10.07;;;6.18;;
48613;SDS011;34408;51.426;5.444;2022-12-11T14:19:59;11.80;;;6.50;;
48613;SDS011;34408;51.426;5.444;2022-12-11T14:22:33;10.43;;;5.65;;
48613;SDS011;34408;51.426;5.444;2022-12-11T14:25:12;9.95;;;6.15;;
48613;SDS011;34408;51.426;5.444;2022-12-11T14:27:47;9.80;;;6.32;;
48613;SDS011;34408;51.426;5.444;2022-12-11T14:30:19;9.23;;;5.72;;
48613;SDS011;34408;51.426;5.444;2022-12-11T14:32:48;12.30;;;6.55;;
48613;SDS011;34408;51.426;5.444;2022-12-11T14:35:22;8.63;;;5.70;;
48613;SDS011;34408;51.426;5.444;2022-12-11T14:37:59;11.30;;;6.15;;
48613;SDS011;34408;51.426;5.444;2022-12-11T14:40:33;10.32;;;5.50;;
48613;SDS011;34408;51.426;5.444;2022-12-11T14:43:06;10.07;;;6.22;;
48613;SDS011;34408;51.426;5.444;2022-12-11T14:45:37;8.63;;;5.45;;
48613;SDS011;34408;51.426;5.444;2022-12-11T14:48:09;9.05;;;5.40;;
48613;SDS011;34408;51.426;5.444;2022-12-11T14:50:43;10.23;;;6.30;;
48613;SDS011;34408;51.426;5.444;2022-12-11T14:53:18;8.65;;;5.43;;
48613;SDS011;34408;51.426;5.444;2022-12-11T14:55:49;10.82;;;6.00;;
48613;SDS011;34408;51.426;5.444;2022-12-11T14:58:18;11.77;;;5.88;;
48613;SDS011;34408;51.426;5.444;2022-12-11T15:00:55;13.15;;;6.57;;
48613;SDS011;34408;51.426;5.444;2022-12-11T15:03:29;11.50;;;6.35;;
48613;SDS011;34408;51.426;5.444;2022-12-11T15:05:59;9.80;;;5.45;;